Date,TemperatureHighF,TemperatureAvgF,TemperatureLowF,DewpointHighF,DewpointAvgF,DewpointLowF,HumidityHigh,HumidityAvg,HumidityLow,PressureMaxIn,PressureMinIn,WindSpeedMaxMPH,WindSpeedAvgMPH,GustSpeedMaxMPH,PrecipitationSumIn
2013-1-1,76,65,54,60,56,51,93,76,55,30.21,30.03,10,1,16,0.00
2013-1-2,80,67,58,66,61,55,92,80,57,30.06,29.96,5,0,10,0.00
2013-1-3,75,65,59,66,61,55,95,88,71,30.17,30.01,9,1,15,0.03
2013-1-4,59,57,55,58,56,53,95,94,93,30.26,30.13,9,1,11,0.08
2013-1-5,75,63,54,62,56,51,94,80,63,30.28,30.17,8,2,12,0.01
2013-1-6,79,68,61,68,63,58,94,83,67,30.19,30.04,7,1,11,0.00
2013-1-7,71,63,57,61,57,51,92,81,61,30.21,30.10,9,2,12,0.00
2013-1-8,79,71,63,69,66,61,95,84,68,30.22,30.11,3,0,7,0.00
2013-1-9,82,73,67,72,69,65,95,87,69,30.29,30.18,7,1,12,0.01
2013-1-10,82,72,65,70,66,62,95,81,53,30.30,30.21,9,1,14,0.01
2013-1-11,81,72,62,68,64,60,95,79,56,30.25,30.14,10,2,14,0.00
2013-1-12,83,71,62,69,63,60,95,78,47,30.19,30.07,9,1,12,0.01
2013-1-13,82,71,60,66,63,58,95,78,49,30.15,30.06,7,1,12,0.00
2013-1-14,80,70,61,66,63,59,95,79,57,30.18,30.10,9,1,12,0.00
2013-1-15,82,71,63,68,64,61,94,79,54,30.14,30.04,7,1,11,0.00
2013-1-16,82,71,61,66,62,58,94,75,46,30.09,29.99,7,1,10,0.00
2013-1-17,79,65,54,68,58,45,94,80,63,30.09,29.93,15,3,20,0.01
2013-1-18,65,54,41,59,47,34,89,76,69,30.27,30.09,9,2,15,0.03
2013-1-19,74,64,56,60,56,52,87,77,59,30.27,30.12,6,2,15,0.00
2013-1-20,73,64,60,63,58,53,94,82,68,30.16,30.04,8,2,12,0.01
2013-1-21,75,65,60,62,58,55,89,79,61,30.08,29.98,4,0,6,0.05
2013-1-22,63,58,48,55,44,38,83,61,42,30.26,30.05,8,2,14,0.00
2013-1-23,68,56,47,44,38,31,83,56,30,30.35,30.25,6,1,10,0.00
2013-1-24,72,59,47,52,47,43,90,68,41,30.32,30.20,4,0,9,0.00
2013-1-25,75,62,52,56,51,46,94,69,41,30.30,30.16,9,0,13,0.00
2013-1-26,75,62,49,56,52,46,94,72,46,30.26,30.15,5,0,10,0.00
2013-1-27,79,66,53,63,57,51,95,77,48,30.30,30.21,5,1,10,0.00
2013-1-28,78,69,63,64,62,60,91,79,61,30.32,30.23,10,1,14,0.00
2013-1-29,83,71,63,68,64,62,95,80,50,30.24,30.09,9,2,13,0.01
2013-1-30,83,73,65,66,64,62,92,73,52,30.10,29.87,19,5,23,0.00
2013-1-31,71,59,49,66,43,29,91,58,33,30.21,29.88,9,2,17,0.06
2013-2-1,69,54,39,38,32,27,76,47,22,30.34,30.21,6,1,12,0.00
2013-2-2,72,57,43,45,39,35,80,54,31,30.30,30.12,6,1,9,0.00
2013-2-3,71,58,43,50,43,36,89,61,42,30.18,30.04,6,1,14,0.00
2013-2-4,70,56,42,47,40,33,92,60,29,30.13,30.02,7,0,14,0.00
2013-2-5,76,60,44,52,47,41,90,65,40,30.09,29.98,5,0,9,0.00
2013-2-6,79,68,58,63,58,52,87,71,50,30.10,30.01,4,0,9,0.00
2013-2-7,80,73,67,63,61,57,81,68,51,30.07,29.86,15,3,19,0.00
2013-2-8,81,70,61,64,59,54,87,70,44,30.06,29.85,7,1,13,0.00
2013-2-9,75,63,55,56,54,51,91,74,48,30.20,30.05,6,2,12,0.00
2013-2-10,78,67,58,59,56,53,85,70,48,30.26,30.16,9,2,16,0.00
2013-2-11,82,70,58,64,60,56,92,71,48,30.20,30.05,12,2,18,0.00
2013-2-12,84,74,62,67,63,60,93,72,47,30.09,29.91,9,2,16,0.00
2013-2-13,85,73,63,70,66,59,92,79,52,29.95,29.80,9,2,23,0.37
2013-2-14,66,63,57,61,59,55,94,86,72,30.02,29.90,6,0,11,0.18
2013-2-15,69,59,53,57,54,51,95,83,58,30.06,29.94,4,1,8,0.03
2013-2-16,68,58,50,52,44,30,90,64,38,30.11,29.88,12,2,20,0.00
2013-2-17,54,45,37,29,19,11,63,38,19,30.33,30.11,9,2,17,0.00
2013-2-18,68,51,34,46,36,24,83,59,38,30.36,30.20,9,1,17,0.00
2013-2-19,79,64,48,56,51,44,92,66,40,30.21,30.04,12,2,17,0.00
2013-2-20,77,65,60,59,56,53,89,73,54,30.12,30.00,7,1,11,0.00
2013-2-21,83,70,57,65,58,52,87,69,45,30.10,29.98,9,1,10,0.00
2013-2-22,86,74,64,69,65,60,94,77,43,30.07,29.97,11,2,16,0.00
2013-2-23,87,77,70,69,67,63,91,73,48,30.00,29.85,12,3,17,0.00
2013-2-24,76,70,65,71,67,63,93,90,82,29.95,29.85,4,1,10,0.30
2013-2-25,86,72,63,71,65,61,95,83,44,29.91,29.75,10,1,26,0.26
2013-2-26,77,72,66,71,67,60,92,85,73,29.85,29.73,12,3,20,0.04
2013-2-27,77,66,58,62,56,50,90,71,48,29.96,29.85,6,1,12,0.00
2013-2-28,74,62,52,53,49,44,90,64,37,29.98,29.86,6,1,13,0.00
2013-3-1,66,57,50,48,40,34,79,56,33,29.98,29.89,7,1,12,0.00
2013-3-2,59,52,45,38,34,28,63,51,31,30.02,29.93,11,2,21,0.00
2013-3-3,53,46,39,34,31,28,70,58,44,30.14,29.98,8,2,22,0.00
2013-3-4,66,50,35,37,30,23,86,52,25,30.22,30.10,6,1,12,0.00
2013-3-5,77,61,44,57,43,37,89,57,31,30.17,30.00,11,2,14,0.00
2013-3-6,68,60,50,61,40,29,90,53,25,30.12,29.91,11,3,24,0.00
2013-3-7,68,54,42,46,38,31,85,56,38,30.20,30.10,9,1,11,0.00
2013-3-8,74,58,45,48,43,31,91,64,21,30.21,30.10,4,1,9,0.00
2013-3-9,75,61,49,53,48,45,89,65,38,30.21,30.13,9,1,11,0.00
2013-3-10,77,65,55,57,54,51,89,68,43,30.17,30.07,11,1,17,0.00
2013-3-11,77,66,55,61,56,52,91,71,50,30.11,29.90,11,3,18,0.00
2013-3-12,72,66,58,67,62,55,93,85,73,30.01,29.86,12,3,17,0.24
2013-3-13,75,61,51,55,42,32,91,55,24,30.15,30.00,12,2,14,0.00
2013-3-14,66,56,46,45,34,26,74,48,22,30.25,30.14,8,2,13,0.00
2013-3-15,72,56,42,46,38,30,91,58,26,30.28,30.12,7,1,10,0.00
2013-3-16,79,62,46,48,43,41,88,56,27,30.18,30.02,6,1,12,0.00
2013-3-17,78,65,49,58,51,42,89,62,41,30.13,29.98,9,2,11,0.00
2013-3-18,79,71,64,65,61,58,83,72,58,30.05,29.89,9,3,15,0.00
2013-3-19,88,74,64,64,61,56,92,67,35,30.00,29.86,5,1,9,0.00
2013-3-20,76,69,60,67,62,56,91,78,62,29.96,29.77,14,1,19,0.15
2013-3-21,71,60,51,56,42,31,90,55,27,29.96,29.85,6,1,14,0.00
2013-3-22,79,61,47,61,49,41,91,68,33,30.00,29.88,8,1,15,0.13
2013-3-23,86,73,63,72,66,60,94,78,53,29.98,29.74,11,2,20,0.02
2013-3-24,81,72,68,72,68,65,93,86,69,29.84,29.63,9,3,23,0.90
2013-3-25,72,65,56,67,47,34,90,56,25,30.01,29.70,9,2,16,0.01
2013-3-26,60,54,47,43,30,23,62,41,26,30.21,30.01,9,3,27,0.00
2013-3-27,64,50,42,40,31,27,75,50,28,30.30,30.19,6,1,12,0.00
2013-3-28,72,56,41,43,37,30,87,55,23,30.29,30.16,5,1,10,0.00
2013-3-29,74,60,47,48,40,33,87,54,23,30.32,30.18,7,1,9,0.00
2013-3-30,80,64,48,52,48,41,89,59,32,30.25,30.10,7,2,15,0.00
2013-3-31,82,71,61,56,53,50,76,55,36,30.16,29.98,13,2,17,0.00
2013-4-1,85,73,64,66,61,56,85,66,44,30.02,29.90,11,2,15,0.00
2013-4-2,84,72,63,63,59,53,93,67,38,30.07,29.98,7,1,11,0.00
2013-4-3,84,71,62,68,63,58,92,76,48,30.07,29.95,8,2,16,0.21
2013-4-4,74,70,67,69,66,62,94,86,77,30.00,29.84,15,2,19,0.17
2013-4-5,76,67,58,67,62,54,91,82,59,29.98,29.79,11,2,14,0.08
2013-4-6,76,65,55,58,55,51,92,73,51,30.12,29.97,9,2,13,0.01
2013-4-7,80,69,59,62,59,55,93,71,44,30.15,30.04,7,1,11,0.00
2013-4-8,83,71,59,65,59,57,94,70,44,30.14,30.04,8,1,16,0.00
2013-4-9,84,72,63,67,61,55,94,71,46,30.16,30.06,8,1,14,0.00
2013-4-10,87,74,61,69,64,59,94,74,41,30.12,29.97,10,2,14,0.00
2013-4-11,88,78,71,71,70,67,92,76,50,29.99,29.81,12,4,19,0.00
2013-4-12,85,78,74,73,70,68,90,78,60,29.89,29.79,13,4,21,0.00
2013-4-13,88,76,69,70,66,59,90,73,45,29.97,29.86,4,0,7,0.00
2013-4-14,88,75,67,73,67,62,94,77,53,29.97,29.80,6,1,14,1.20
2013-4-15,91,75,66,67,64,62,91,70,44,30.06,29.90,7,1,11,0.00
2013-4-16,87,76,69,71,67,63,94,74,54,30.14,30.03,7,1,12,0.00
2013-4-17,83,74,67,70,66,63,95,77,53,30.13,30.04,7,1,13,0.00
2013-4-18,88,77,66,70,67,63,95,73,47,30.05,29.94,8,2,14,0.00
2013-4-19,91,79,73,73,70,67,91,75,46,30.01,29.88,18,4,19,0.03
2013-4-20,76,69,60,71,63,56,89,81,68,30.13,29.94,7,2,14,0.00
2013-4-21,78,69,62,72,66,56,95,89,74,30.13,30.00,7,1,11,4.58
2013-4-22,79,70,65,68,66,63,96,89,65,30.06,29.98,7,2,16,0.06
2013-4-23,80,71,63,65,62,57,94,75,47,30.11,30.00,9,2,14,0.00
2013-4-24,85,72,60,64,60,58,94,70,41,30.13,30.05,6,1,11,0.01
2013-4-25,88,74,62,65,62,58,93,67,38,30.19,30.08,10,1,13,0.00
2013-4-26,87,75,65,67,64,62,92,70,44,30.23,30.14,6,1,13,0.00
2013-4-27,84,74,66,69,65,61,93,74,49,30.21,30.09,6,1,13,0.00
2013-4-28,82,73,65,66,64,62,93,74,53,30.12,29.98,10,1,15,0.00
2013-4-29,87,75,66,71,64,60,92,72,44,30.01,29.88,12,2,15,0.51
2013-4-30,90,74,67,70,66,61,95,80,40,30.00,29.90,6,1,15,0.45
2013-5-1,77,72,68,72,69,66,95,91,72,30.00,29.92,3,0,11,0.18
2013-5-2,74,70,67,71,68,65,95,93,84,29.95,29.81,6,0,10,1.77
2013-5-3,80,72,67,69,67,65,96,86,66,29.83,29.66,13,2,22,0.02
2013-5-4,85,74,68,70,67,65,95,80,55,29.77,29.64,7,1,12,0.03
2013-5-5,79,70,62,67,54,44,91,59,34,29.92,29.73,8,2,16,0.00
2013-5-6,79,70,63,60,56,51,83,62,40,29.99,29.87,7,2,16,0.00
2013-5-7,80,69,56,60,56,52,89,64,41,30.04,29.94,11,2,17,0.00
2013-5-8,84,73,62,62,59,57,90,65,41,30.11,30.01,6,1,12,0.00
2013-5-9,87,74,61,65,60,54,93,66,33,30.13,30.06,6,1,11,0.00
2013-5-10,91,77,65,71,67,63,94,73,43,30.12,29.97,8,2,12,0.00
2013-5-11,90,78,70,72,68,65,91,74,49,30.04,29.94,10,2,15,0.11
2013-5-12,90,79,70,72,67,64,93,69,47,30.02,29.91,7,1,12,0.00
2013-5-13,84,75,66,67,60,50,85,63,36,30.11,29.97,6,1,17,0.00
2013-5-14,84,71,59,57,54,48,87,58,29,30.20,30.11,5,1,10,0.00
2013-5-15,85,72,60,62,58,54,91,63,40,30.20,30.08,6,1,13,0.00
2013-5-16,86,75,65,64,62,59,86,65,41,30.12,30.00,8,1,13,0.00
2013-5-17,88,76,65,67,64,61,90,68,41,30.09,30.02,9,1,12,0.00
2013-5-18,93,79,68,71,68,59,93,71,32,30.10,29.99,7,1,15,0.00
2013-5-19,89,77,70,73,70,67,92,81,52,30.07,29.98,11,2,17,1.13
2013-5-20,88,76,71,73,70,66,94,81,49,30.07,29.96,7,1,13,0.39
2013-5-21,81,73,70,73,70,68,95,89,69,30.02,29.93,5,0,11,0.25
2013-5-22,88,75,68,73,70,67,96,84,52,29.96,29.89,5,0,15,0.49
2013-5-23,92,79,70,74,69,66,95,76,45,29.98,29.89,10,0,13,0.01
2013-5-24,95,82,72,73,67,61,93,66,33,30.07,29.94,5,0,12,0.00
2013-5-25,85,77,69,69,63,58,91,64,46,30.18,30.06,8,1,13,0.00
2013-5-26,85,73,62,62,59,57,88,63,40,30.20,30.12,7,1,9,0.00
2013-5-27,86,75,66,65,62,60,89,67,43,30.17,30.09,10,1,16,0.00
2013-5-28,87,77,68,71,68,65,90,74,55,30.13,30.05,11,2,16,0.00
2013-5-29,85,77,71,75,71,68,93,83,61,30.13,30.04,9,2,26,0.30
2013-5-30,86,78,72,74,70,68,94,79,58,30.10,30.03,12,2,20,0.23
2013-5-31,85,77,71,75,70,68,92,79,60,30.09,30.02,11,2,19,0.19
2013-6-1,89,79,72,75,72,70,92,80,60,30.05,29.95,8,1,16,0.01
2013-6-2,93,80,74,76,73,71,95,82,50,30.00,29.86,10,1,15,1.11
2013-6-3,90,80,74,76,73,72,95,82,56,29.98,29.87,9,1,16,0.00
2013-6-4,88,78,74,73,71,69,89,80,58,30.02,29.92,10,1,21,0.00
2013-6-5,85,76,72,75,72,69,95,88,69,30.00,29.90,8,1,17,0.94
2013-6-6,79,75,72,76,73,69,95,92,76,29.90,29.65,15,4,25,2.98
2013-6-7,89,80,73,74,72,70,93,79,61,29.93,29.75,9,2,12,0.00
2013-6-8,90,78,71,75,72,69,95,83,56,30.08,29.93,11,1,26,2.09
2013-6-9,89,79,70,76,72,69,96,81,58,30.09,30.01,10,2,15,0.01
2013-6-10,93,80,75,76,73,70,93,80,51,30.08,29.99,8,2,15,0.05
2013-6-11,92,80,73,77,73,69,92,79,55,30.08,29.99,5,1,8,0.11
2013-6-12,96,82,71,75,72,69,95,74,42,30.07,29.96,10,1,14,0.01
2013-6-13,95,84,76,76,72,71,88,71,48,30.01,29.87,6,1,15,0.00
2013-6-14,93,88,82,73,70,66,73,55,45,29.92,29.82,6,1,12,0.00
2013-6-15,88,81,78,77,74,71,92,78,65,30.05,29.89,6,1,15,0.46
2013-6-16,88,81,77,78,74,72,89,81,63,30.07,30.00,9,1,13,0.14
2013-6-17,90,80,75,79,76,72,93,86,65,30.07,29.95,8,1,16,1.40
2013-6-18,94,81,72,76,73,70,94,80,50,30.05,29.93,12,1,18,0.56
2013-6-19,94,83,74,76,73,70,94,74,47,30.02,29.93,8,2,14,0.00
2013-6-20,95,80,73,75,73,70,94,79,48,30.08,29.98,9,1,16,0.57
2013-6-21,91,78,72,75,72,70,96,84,52,30.10,30.02,11,1,19,0.03
2013-6-22,93,81,72,76,71,66,95,74,43,30.10,30.03,6,1,14,0.01
2013-6-23,90,80,73,76,73,71,93,81,56,30.13,30.05,10,1,15,0.01
2013-6-24,90,82,74,76,73,70,94,76,52,30.17,30.06,7,1,12,0.00
2013-6-25,91,82,74,75,72,69,94,74,54,30.14,30.02,9,1,13,0.00
2013-6-26,94,81,76,76,73,69,92,78,50,30.06,30.00,12,1,19,0.04
2013-6-27,94,81,72,78,72,70,93,77,49,30.03,29.91,10,1,16,0.37
2013-6-28,91,80,75,78,73,68,89,79,58,29.95,29.82,10,1,19,0.05
2013-6-29,89,80,77,77,74,71,91,81,59,29.86,29.78,9,2,16,0.02
2013-6-30,89,77,75,77,73,71,93,88,62,29.87,29.80,10,2,23,0.76
2013-7-1,85,76,74,75,72,69,93,87,66,30.01,29.85,11,3,19,0.50
2013-7-2,84,77,74,76,73,71,94,88,76,30.08,29.96,8,1,12,0.21
2013-7-3,88,77,73,77,73,70,95,89,66,30.12,30.04,10,1,15,0.78
2013-7-4,91,78,71,77,73,67,96,85,56,30.14,30.06,14,2,20,1.04
2013-7-5,89,80,73,77,73,71,96,80,57,30.14,30.04,10,2,19,0.14
2013-7-6,90,81,74,75,73,70,94,77,55,30.11,30.03,12,2,17,0.00
2013-7-7,91,82,74,76,73,69,93,75,50,30.12,30.03,8,1,15,0.00
2013-7-8,91,82,75,76,73,72,94,76,54,30.15,30.06,7,1,14,0.00
2013-7-9,91,82,74,75,71,66,94,72,44,30.14,30.05,6,1,12,0.00
2013-7-10,90,81,74,75,72,69,93,76,53,30.07,29.95,7,1,14,0.17
2013-7-11,92,81,76,74,72,70,91,76,49,30.03,29.90,15,2,26,0.00
2013-7-12,88,79,75,76,74,72,91,83,61,29.94,29.88,10,1,13,0.13
2013-7-13,90,79,74,75,72,69,93,81,54,29.98,29.89,13,1,21,0.01
2013-7-14,89,78,73,75,73,71,94,85,59,30.08,29.96,9,2,17,0.07
2013-7-15,87,78,71,75,72,69,95,82,61,30.11,30.00,10,1,13,0.01
2013-7-16,88,78,74,75,73,71,93,85,62,30.14,30.08,8,1,16,0.45
2013-7-17,89,79,74,76,74,70,94,84,59,30.14,30.06,7,1,13,0.09
2013-7-18,86,78,73,75,72,70,94,82,59,30.10,30.03,9,1,22,0.00
2013-7-19,90,77,71,75,72,69,95,85,59,30.12,30.02,9,1,16,2.54
2013-7-20,91,78,72,78,73,71,96,86,59,30.09,29.99,9,1,18,0.03
2013-7-21,94,80,74,77,73,68,94,81,49,30.11,29.99,11,1,18,0.00
2013-7-22,93,79,75,77,74,70,93,84,52,30.10,30.04,6,1,21,0.71
2013-7-23,85,79,75,77,74,72,95,84,69,30.07,29.92,8,1,15,0.01
2013-7-24,88,84,80,77,75,70,83,73,58,29.94,29.86,7,2,20,0.01
2013-7-25,86,80,73,77,75,71,93,85,73,29.96,29.85,8,1,16,0.27
2013-7-26,95,81,76,79,75,72,95,83,50,29.99,29.92,4,0,12,0.49
2013-7-27,94,81,74,77,75,73,96,82,54,29.98,29.87,5,0,14,0.13
2013-7-28,92,79,72,76,73,70,94,82,53,30.05,29.91,10,1,20,1.37
2013-7-29,93,84,76,77,75,73,96,75,53,30.13,30.05,3,0,12,0.02
2013-7-30,95,84,76,78,75,71,95,76,48,30.16,30.06,5,0,13,0.00
2013-7-31,92,82,75,78,75,70,94,80,58,30.12,29.98,12,0,19,0.53
2013-8-1,94,80,75,77,74,69,95,82,46,30.04,29.93,10,1,17,0.10
2013-8-2,94,82,74,77,73,68,96,76,45,30.01,29.93,6,0,10,0.01
2013-8-3,93,81,76,77,74,72,92,80,51,30.07,29.98,13,1,14,0.36
2013-8-4,93,81,76,78,76,73,95,84,56,30.07,29.96,16,0,19,0.88
2013-8-5,95,83,77,79,76,72,92,80,54,30.00,29.89,6,1,11,0.07
2013-8-6,94,82,74,77,75,73,95,80,56,29.96,29.88,5,0,8,0.00
2013-8-7,92,83,77,78,75,73,94,78,55,29.96,29.89,5,1,12,0.00
2013-8-8,92,83,76,78,75,72,94,78,55,30.03,29.93,9,1,16,0.35
2013-8-9,94,82,76,77,74,70,94,77,51,30.05,29.96,14,1,17,0.02
2013-8-10,94,84,74,77,74,71,93,73,51,30.10,30.02,13,2,13,0.00
2013-8-11,96,84,76,78,74,69,95,73,44,30.13,30.04,6,1,13,0.00
2013-8-12,95,84,75,76,73,69,94,71,47,30.11,29.98,6,1,12,0.00
2013-8-13,97,86,76,76,72,66,91,68,40,30.03,29.89,6,1,12,0.00
2013-8-14,95,82,76,78,75,71,93,80,49,30.00,29.88,6,0,13,0.33
2013-8-15,94,82,75,77,74,68,95,79,45,30.01,29.90,10,1,16,0.01
2013-8-16,93,82,74,76,74,70,93,80,50,30.05,29.93,18,1,21,3.16
2013-8-17,94,82,74,80,76,73,96,84,54,30.07,29.97,12,1,22,0.09
2013-8-18,90,83,77,77,75,72,95,78,58,30.08,29.99,9,1,16,0.01
2013-8-19,92,82,76,79,75,70,95,78,56,30.07,29.95,6,1,22,0.00
2013-8-20,94,84,76,78,74,70,94,75,47,30.08,29.98,7,1,15,0.00
2013-8-21,91,81,77,79,75,72,92,82,60,30.09,30.01,12,1,17,0.14
2013-8-22,89,80,77,79,76,73,94,86,66,30.07,29.97,8,0,14,0.00
2013-8-23,91,80,77,79,76,73,95,86,58,30.01,29.93,5,0,10,0.38
2013-8-24,92,79,73,79,74,72,95,87,54,30.09,29.99,11,0,17,1.86
2013-8-25,86,78,74,77,74,72,96,87,70,30.14,30.06,4,0,9,0.13
2013-8-26,88,80,74,78,74,72,95,83,62,30.12,29.99,7,1,15,0.02
2013-8-27,90,81,73,75,70,66,94,73,51,30.05,29.97,5,1,13,0.00
2013-8-28,91,80,71,74,69,65,94,70,46,30.04,29.95,7,0,10,0.00
2013-8-29,93,83,74,74,71,65,93,70,40,30.01,29.90,5,0,11,0.00
2013-8-30,95,83,76,77,73,68,89,75,43,29.97,29.86,13,1,18,0.27
2013-8-31,94,81,75,76,73,70,92,77,51,29.95,29.85,8,0,17,0.13
2013-9-1,94,80,74,75,72,71,94,80,51,29.98,29.87,16,1,26,1.17
2013-9-2,92,80,74,75,73,72,94,81,54,30.00,29.90,4,0,10,0.70
2013-9-3,92,82,73,77,73,70,94,77,51,30.00,29.90,6,1,12,0.00
2013-9-4,94,81,74,77,73,71,93,80,49,30.07,29.96,12,1,18,0.55
2013-9-5,93,81,73,78,74,71,94,81,54,30.08,29.98,7,0,9,0.00
2013-9-6,93,79,71,79,74,69,95,86,50,30.03,29.95,12,0,26,1.19
2013-9-7,90,77,72,76,73,69,96,87,55,30.00,29.91,8,1,14,0.25
2013-9-8,90,82,72,76,72,70,96,73,53,29.96,29.86,9,1,12,0.01
2013-9-9,91,81,73,74,71,67,92,74,48,30.02,29.91,6,1,11,0.00
2013-9-10,90,81,75,74,72,67,91,74,48,30.08,29.98,8,1,15,0.00
2013-9-11,91,82,75,75,72,68,91,74,51,30.06,29.97,8,1,14,0.00
2013-9-12,89,80,74,77,73,71,95,80,57,30.01,29.88,9,1,14,0.00
2013-9-13,92,81,73,75,72,68,94,77,47,29.89,29.77,3,0,9,0.91
2013-9-14,94,83,75,77,74,70,94,76,48,29.96,29.81,5,0,15,0.01
2013-9-15,91,81,77,77,74,72,93,81,54,30.05,29.95,6,0,16,0.00
2013-9-16,92,80,73,76,73,71,94,79,54,30.06,29.97,7,1,12,0.03
2013-9-17,88,80,74,76,73,71,94,79,58,30.04,29.94,8,1,16,0.02
2013-9-18,85,78,74,77,73,71,94,86,68,30.02,29.95,9,0,13,0.60
2013-9-19,90,79,72,75,72,69,94,81,52,30.03,29.96,7,1,16,0.04
2013-9-20,89,78,70,71,69,66,93,75,49,30.02,29.89,5,1,9,0.00
2013-9-21,90,80,70,72,70,65,94,73,44,29.93,29.74,5,0,9,0.00
2013-9-22,90,79,74,75,73,70,94,83,57,29.84,29.73,16,1,21,0.35
2013-9-23,86,76,74,77,74,72,96,92,70,29.94,29.82,5,0,12,1.68
2013-9-24,84,78,74,76,74,72,95,89,72,29.95,29.82,6,1,12,0.09
2013-9-25,82,77,74,74,72,70,93,84,71,29.83,29.76,8,1,16,0.01
2013-9-26,91,81,74,78,72,64,94,77,44,29.85,29.75,9,1,15,0.00
2013-9-27,81,75,71,72,70,68,93,85,72,29.94,29.83,7,1,13,0.00
2013-9-28,83,77,71,74,70,68,94,81,65,29.99,29.89,7,1,13,0.01
2013-9-29,88,78,70,72,68,65,92,74,46,29.98,29.88,8,1,14,0.00
2013-9-30,88,78,70,72,69,66,94,78,48,30.00,29.89,3,0,11,0.00
2013-10-1,88,78,72,73,71,69,92,77,57,30.05,29.96,7,0,11,0.00
2013-10-2,87,78,71,71,69,67,89,75,56,30.05,29.98,5,0,10,0.00
2013-10-3,90,78,70,73,70,67,92,75,52,30.06,29.97,5,0,10,0.00
2013-10-4,91,79,71,74,70,68,94,75,48,30.06,29.97,7,0,9,0.00
2013-10-5,89,79,71,74,71,69,94,78,54,30.04,29.94,6,1,11,0.00
2013-10-6,90,78,72,75,72,70,95,81,53,29.96,29.84,6,1,21,0.04
2013-10-7,84,77,73,75,73,70,94,87,72,29.86,29.73,8,1,19,0.46
2013-10-8,89,79,75,76,73,70,94,83,62,29.92,29.75,6,1,17,0.01
2013-10-9,82,74,68,71,68,65,88,82,66,30.02,29.90,11,2,15,0.00
2013-10-10,85,74,66,68,66,64,92,75,49,30.04,29.94,8,1,10,0.00
2013-10-11,87,75,64,69,64,62,95,72,46,30.03,29.92,5,0,13,0.00
2013-10-12,88,76,66,69,64,59,93,69,39,30.02,29.94,5,0,10,0.00
2013-10-13,86,76,66,66,62,57,91,66,39,30.07,29.97,4,0,8,0.00
2013-10-14,86,75,68,68,66,63,91,75,50,30.02,29.91,8,1,11,0.00
2013-10-15,82,73,69,71,69,66,94,86,66,29.98,29.88,3,0,9,0.00
2013-10-16,88,77,71,71,69,65,95,79,48,29.96,29.87,5,0,6,0.00
2013-10-17,90,78,70,74,70,66,95,77,48,29.97,29.87,3,0,7,0.00
2013-10-18,90,79,71,74,70,68,95,77,49,29.98,29.87,6,0,9,0.00
2013-10-19,89,80,72,74,71,68,93,76,54,29.94,29.84,8,1,12,0.00
2013-10-20,88,79,75,75,72,70,93,81,60,29.95,29.84,7,1,11,0.00
2013-10-21,91,80,73,76,73,70,93,79,56,29.98,29.87,7,0,10,0.00
2013-10-22,89,80,73,75,72,70,94,78,56,29.93,29.78,9,1,15,0.00
2013-10-23,84,75,68,71,62,52,90,66,41,29.99,29.79,6,1,13,0.00
2013-10-24,72,66,61,58,54,47,83,65,54,30.14,30.00,5,1,10,0.00
2013-10-25,80,68,58,58,55,47,89,65,38,30.21,30.13,8,1,11,0.00
2013-10-26,79,67,57,57,54,50,88,66,38,30.19,30.07,5,0,7,0.00
2013-10-27,79,66,57,59,55,50,92,69,38,30.13,30.04,5,0,10,0.00
2013-10-28,83,69,57,64,59,52,92,73,46,30.18,30.08,6,0,8,0.00
2013-10-29,83,72,62,67,64,61,94,77,52,30.21,30.12,9,2,14,0.01
2013-10-30,83,73,66,69,66,64,93,78,55,30.21,30.09,7,0,12,0.00
2013-10-31,86,75,66,70,66,62,95,76,46,30.12,29.97,10,2,17,0.02
2013-11-1,88,78,69,72,68,64,94,73,48,29.99,29.84,9,1,21,0.00
2013-11-2,75,69,63,71,66,60,92,88,80,29.96,29.79,7,1,14,0.24
2013-11-3,76,66,58,60,53,46,93,67,37,30.09,29.94,8,1,15,0.01
2013-11-4,78,69,63,64,60,55,88,72,48,30.16,30.08,11,1,17,0.01
2013-11-5,81,73,67,68,66,63,90,78,58,30.14,30.07,14,2,19,0.02
2013-11-6,81,73,68,69,67,64,91,82,64,30.11,30.02,6,1,11,0.01
2013-11-7,80,72,68,70,67,65,95,83,62,30.04,29.94,4,0,8,0.01
2013-11-8,78,69,64,66,62,56,93,80,65,30.11,29.98,12,2,14,0.00
2013-11-9,80,71,63,65,61,59,88,73,56,30.17,30.08,9,1,13,0.00
2013-11-10,82,71,63,66,64,60,93,78,53,30.15,30.07,7,1,10,0.00
2013-11-11,82,72,65,68,64,63,92,78,54,30.15,30.05,5,0,10,0.00
2013-11-12,80,71,64,68,64,58,95,80,62,30.10,29.98,5,0,9,0.00
2013-11-13,68,61,54,58,51,49,83,71,60,30.29,30.06,16,4,22,0.00
2013-11-14,76,63,53,57,53,49,91,72,45,30.29,30.17,8,1,13,0.00
2013-11-15,76,68,61,66,62,56,91,81,65,30.18,30.06,1,0,8,0.01
2013-11-16,74,70,68,72,68,65,94,92,89,30.12,30.02,3,0,7,0.12
2013-11-17,86,76,68,72,69,66,95,79,55,30.07,29.97,7,1,14,0.01
2013-11-18,84,76,70,71,69,67,93,79,62,30.01,29.89,3,0,7,0.00
2013-11-19,78,71,66,69,64,58,92,77,54,29.96,29.86,7,1,11,0.00
2013-11-20,81,72,66,71,67,62,91,84,68,30.09,29.95,7,0,11,0.00
2013-11-21,78,72,70,71,69,68,94,89,76,30.18,30.08,8,1,11,0.01
2013-11-22,80,73,69,71,68,65,95,84,65,30.18,30.09,6,0,10,0.00
2013-11-23,85,74,66,68,65,63,94,76,49,30.09,29.97,4,0,9,0.01
2013-11-24,69,65,62,66,58,52,92,78,67,30.22,30.01,13,3,20,0.00
2013-11-25,74,67,62,62,57,52,83,70,55,30.23,30.07,11,1,16,0.00
2013-11-26,82,74,66,72,68,62,92,82,68,30.06,29.72,14,4,25,0.08
2013-11-27,75,63,43,71,56,36,93,79,62,30.19,29.68,11,3,27,0.23
2013-11-28,65,51,38,51,43,32,84,74,58,30.33,30.19,11,2,15,0.00
2013-11-29,70,60,52,59,53,48,91,79,65,30.35,30.27,9,3,17,0.00
2013-11-30,76,65,58,64,60,54,93,83,62,30.29,30.17,8,2,14,0.00
2013-12-1,73,66,62,65,62,60,95,89,72,30.16,29.96,5,1,9,0.00
2013-12-2,72,65,60,63,59,55,95,83,58,29.95,29.80,5,0,12,0.00
2013-12-3,78,67,56,61,58,54,93,76,51,29.98,29.87,7,1,10,0.01
2013-12-4,82,71,62,67,63,59,93,78,54,30.07,29.96,5,0,9,0.00
2013-12-5,83,72,63,68,65,60,94,78,54,30.16,30.06,7,1,11,0.00
2013-12-6,84,74,66,71,67,64,94,80,59,30.17,30.07,11,1,15,0.00
2013-12-7,83,74,65,69,66,62,94,78,50,30.22,30.12,5,0,12,0.00
2013-12-8,84,73,64,70,66,62,95,78,52,30.22,30.09,7,1,13,0.00
2013-12-9,83,74,65,71,66,63,95,78,57,30.18,30.07,7,1,15,0.01
2013-12-10,84,74,63,70,64,60,94,75,51,30.17,30.04,9,1,16,0.00
2013-12-11,82,70,60,68,62,54,87,76,58,30.23,30.13,6,1,14,0.00
2013-12-12,69,62,53,62,50,34,92,68,32,30.30,30.18,17,2,17,0.00
2013-12-13,75,61,50,56,51,45,89,72,49,30.25,30.11,9,0,14,0.00
2013-12-14,82,72,61,71,65,56,90,79,63,30.11,29.92,15,3,20,0.00
2013-12-15,73,68,59,70,62,55,93,83,68,30.10,29.86,14,2,17,0.12
2013-12-16,65,56,47,54,47,43,88,74,52,30.21,30.09,5,1,11,0.00
2013-12-17,72,57,47,54,49,43,89,75,54,30.23,30.13,5,0,8,0.00
2013-12-18,70,57,45,50,44,40,92,66,40,30.27,30.18,5,0,12,0.01
2013-12-19,76,61,46,57,51,42,91,72,46,30.27,30.16,6,0,10,0.00
2013-12-20,82,68,54,63,58,52,94,74,49,30.20,30.09,8,1,13,0.00
2013-12-21,85,74,65,71,68,62,94,81,59,30.13,30.02,10,2,16,0.00
2013-12-22,85,75,68,71,68,66,95,79,58,30.13,30.05,10,2,19,0.01
2013-12-23,85,75,68,72,68,65,95,80,57,30.16,30.05,13,1,19,0.00
2013-12-24,72,64,53,70,53,29,93,71,30,30.24,30.07,11,2,16,0.00
2013-12-25,75,60,48,56,50,40,89,70,48,30.23,30.14,7,1,12,0.00
2013-12-26,77,64,56,63,58,55,95,83,57,30.21,30.07,9,1,15,0.00
2013-12-27,71,65,59,65,61,57,91,88,81,30.23,30.15,9,2,13,0.00
2013-12-28,76,71,65,70,67,63,95,89,77,30.20,30.00,9,1,14,0.04
2013-12-29,78,72,66,72,69,64,94,90,76,30.00,29.86,10,2,15,0.31
2013-12-30,70,62,58,64,58,52,94,85,64,30.18,29.97,7,0,8,0.01
2013-12-31,68,61,58,54,52,48,86,71,50,30.29,30.15,7,1,10,0.00
2014-1-1,65,62,59,63,59,54,95,90,81,30.23,30.05,10,1,10,0.02
2014-1-2,81,69,62,72,66,58,96,91,69,30.04,29.80,19,3,19,0.81